createdAt,value
2023-05-11T00:01:13.482Z,53.66
2023-05-11T00:03:40.595Z,53.46
2023-05-11T00:06:07.748Z,53.07
2023-05-11T00:08:34.716Z,52.64
2023-05-11T00:11:01.743Z,52.10
2023-05-11T00:13:29.058Z,51.71
2023-05-11T00:15:56.356Z,51.47
2023-05-11T00:18:23.412Z,51.23
2023-05-11T00:20:50.477Z,51.50
2023-05-11T00:23:17.475Z,51.63
2023-05-11T00:25:44.424Z,51.50
2023-05-11T00:28:11.516Z,51.63
2023-05-11T00:30:40.532Z,51.69
2023-05-11T00:33:07.579Z,51.87
2023-05-11T00:35:34.667Z,51.93
2023-05-11T00:38:01.680Z,51.89
2023-05-11T00:40:28.892Z,51.95
2023-05-11T00:42:55.953Z,51.90
2023-05-11T00:45:22.893Z,52.22
2023-05-11T00:47:50.233Z,52.70
2023-05-11T00:50:19.078Z,53.44
2023-05-11T00:52:46.322Z,53.75
2023-05-11T00:55:13.898Z,53.50
2023-05-11T00:57:40.928Z,52.89
2023-05-11T01:00:08.530Z,52.60
2023-05-11T01:02:35.709Z,52.56
2023-05-11T01:05:02.833Z,52.52
2023-05-11T01:07:49.901Z,52.23
2023-05-11T01:10:26.003Z,51.89
2023-05-11T01:13:25.398Z,51.68
2023-05-11T01:15:54.069Z,51.62
2023-05-11T01:18:29.252Z,51.78
2023-05-11T01:21:01.803Z,51.94
2023-05-11T01:24:06.308Z,52.10
2023-05-11T01:26:38.020Z,52.14
2023-05-11T01:29:32.088Z,52.03
2023-05-11T01:31:59.210Z,51.79
2023-05-11T01:34:30.758Z,51.36
2023-05-11T01:36:59.206Z,51.47
2023-05-11T01:39:30.738Z,51.41
2023-05-11T01:41:57.686Z,50.94
2023-05-11T01:44:25.904Z,50.89
2023-05-11T01:46:52.853Z,50.68
2023-05-11T01:49:19.809Z,50.33
2023-05-11T01:51:49.622Z,50.27
2023-05-11T01:54:17.576Z,50.59
2023-05-11T01:56:44.562Z,51.44
2023-05-11T01:59:11.994Z,52.01
2023-05-11T02:01:39.006Z,52.42
2023-05-11T02:04:06.119Z,52.72
2023-05-11T02:06:33.058Z,53.03
2023-05-11T02:09:00.054Z,53.03
2023-05-11T02:11:27.061Z,52.95
2023-05-11T02:13:56.304Z,52.76
2023-05-11T02:16:23.382Z,52.32
2023-05-11T02:18:50.963Z,51.67
2023-05-11T02:21:18.053Z,51.20
2023-05-11T02:23:46.671Z,51.13
2023-05-11T02:26:13.641Z,51.07
2023-05-11T02:28:40.845Z,51.15
2023-05-11T02:31:16.615Z,51.47
2023-05-11T02:33:45.146Z,51.78
2023-05-11T02:36:14.784Z,52.29
2023-05-11T02:38:41.748Z,52.81
2023-05-11T02:41:11.958Z,53.22
2023-05-11T02:43:41.016Z,53.66
2023-05-11T02:46:17.698Z,54.17
2023-05-11T02:48:47.268Z,54.44
2023-05-11T02:51:14.539Z,54.75
2023-05-11T02:53:45.831Z,55.07
2023-05-11T02:56:12.993Z,55.38
2023-05-11T02:58:39.966Z,55.59
2023-05-11T03:01:17.425Z,55.82
2023-05-11T03:03:44.808Z,55.97
2023-05-11T03:06:12.072Z,56.17
2023-05-11T03:08:39.419Z,56.36
2023-05-11T03:11:06.432Z,56.40
2023-05-11T03:13:33.393Z,56.69
2023-05-11T03:16:02.591Z,56.76
2023-05-11T03:18:30.848Z,57.09
2023-05-11T03:20:58.181Z,57.46
2023-05-11T03:23:25.162Z,57.91
2023-05-11T03:25:52.155Z,58.32
2023-05-11T03:28:19.130Z,58.62
2023-05-11T03:30:55.750Z,59.05
2023-05-11T03:33:22.935Z,59.36
2023-05-11T03:35:51.166Z,59.17
2023-05-11T03:38:19.555Z,58.60
2023-05-11T03:40:46.604Z,57.96
2023-05-11T03:43:16.243Z,56.83
2023-05-11T03:45:43.408Z,55.86
2023-05-11T03:48:11.026Z,55.15
2023-05-11T03:50:38.373Z,54.56
2023-05-11T03:53:05.686Z,54.12
2023-05-11T03:55:32.914Z,53.91
2023-05-11T03:58:00.787Z,53.66
2023-05-11T04:00:28.776Z,53.69
2023-05-11T04:02:55.903Z,53.66
2023-05-11T04:05:22.939Z,53.57
2023-05-11T04:07:50.219Z,53.43
2023-05-11T04:10:18.882Z,53.33
2023-05-11T04:12:45.990Z,53.08
2023-05-11T04:15:12.960Z,52.71
2023-05-11T04:17:39.965Z,52.81
2023-05-11T04:20:07.676Z,52.85
2023-05-11T04:22:34.658Z,53.04
2023-05-11T04:25:03.053Z,53.01
2023-05-11T04:27:33.281Z,52.76
2023-05-11T04:30:00.768Z,52.45
2023-05-11T04:32:30.176Z,52.02
2023-05-11T04:34:57.456Z,51.92
2023-05-11T04:37:26.072Z,51.93
2023-05-11T04:39:53.605Z,51.82
2023-05-11T04:42:21.148Z,51.47
2023-05-11T04:44:54.164Z,51.14
2023-05-11T04:47:21.461Z,50.95
2023-05-11T04:49:48.891Z,50.73
2023-05-11T04:52:16.135Z,50.71
2023-05-11T04:54:45.732Z,50.58
2023-05-11T04:57:12.693Z,50.87
2023-05-11T04:59:39.840Z,50.92
2023-05-11T05:02:06.954Z,50.94
2023-05-11T05:04:36.157Z,51.07
2023-05-11T05:07:04.397Z,51.37
2023-05-11T05:09:31.434Z,51.47
2023-05-11T05:11:58.407Z,51.35
2023-05-11T05:14:25.464Z,51.42
2023-05-11T05:16:54.607Z,51.64
2023-05-11T05:19:21.782Z,51.70
2023-05-11T05:21:49.972Z,51.80
2023-05-11T05:24:16.935Z,51.78
2023-05-11T05:26:43.892Z,51.82
2023-05-11T05:29:12.128Z,51.42
2023-05-11T05:31:39.386Z,50.50
2023-05-11T05:34:06.771Z,49.26
2023-05-11T05:36:34.727Z,48.04
2023-05-11T05:39:03.875Z,46.22
2023-05-11T05:41:31.550Z,44.73
2023-05-11T05:43:58.513Z,43.40
2023-05-11T05:46:25.614Z,42.24
2023-05-11T05:48:52.634Z,41.12
2023-05-11T05:51:19.614Z,40.64
2023-05-11T05:53:47.179Z,39.66
2023-05-11T05:56:14.669Z,38.89
2023-05-11T05:58:41.787Z,37.88
2023-05-11T06:01:08.850Z,37.06
2023-05-11T06:03:36.216Z,36.42
2023-05-11T06:06:03.726Z,35.52
2023-05-11T06:08:30.820Z,35.04
2023-05-11T06:15:01.062Z,36.57
2023-05-11T06:17:29.904Z,35.04
2023-05-11T06:19:57.243Z,35.25
2023-05-11T06:22:26.467Z,35.41
2023-05-11T06:24:53.805Z,35.47
2023-05-11T06:27:21.557Z,35.50
2023-05-11T06:29:49.271Z,35.77
2023-05-11T06:32:16.924Z,35.89
2023-05-11T06:34:44.339Z,36.01
2023-05-11T06:41:32.534Z,37.51
2023-05-11T06:44:00.305Z,36.75
2023-05-11T06:46:29.645Z,36.27
2023-05-11T06:48:56.860Z,35.76
2023-05-11T06:51:24.130Z,35.89
2023-05-11T06:53:51.561Z,35.75
2023-05-11T06:56:18.919Z,35.57
2023-05-11T06:58:45.964Z,35.51
2023-05-11T07:01:13.325Z,35.44
2023-05-11T07:03:40.565Z,35.72
2023-05-11T07:06:07.719Z,35.11
2023-05-11T07:08:35.101Z,34.07
2023-05-11T07:11:02.233Z,33.11
2023-05-11T07:13:29.677Z,32.57
2023-05-11T07:15:57.764Z,31.99
2023-05-11T07:18:25.131Z,31.28
2023-05-11T07:20:52.255Z,30.93
2023-05-11T07:23:19.399Z,30.37
2023-05-11T07:25:46.448Z,30.01
2023-05-11T07:28:13.543Z,30.07
2023-05-11T07:30:40.847Z,29.59
2023-05-11T07:33:08.052Z,29.35
2023-05-11T07:35:35.238Z,29.57
2023-05-11T07:38:03.344Z,29.77
2023-05-11T07:40:30.567Z,30.34
2023-05-11T07:42:57.720Z,30.55
2023-05-11T07:45:24.767Z,30.58
2023-05-11T07:47:52.353Z,31.03
2023-05-11T07:50:19.448Z,31.49
2023-05-11T07:52:47.051Z,32.11
2023-05-11T07:55:14.699Z,32.86
2023-05-11T07:57:41.850Z,33.06
2023-05-11T08:00:11.015Z,33.10
2023-05-11T08:02:41.796Z,33.05
2023-05-11T08:05:09.133Z,33.83
2023-05-11T08:07:38.345Z,33.73
2023-05-11T08:10:07.733Z,34.53
2023-05-11T08:12:36.516Z,34.72
2023-05-11T08:15:04.967Z,35.03
2023-05-11T08:17:32.112Z,35.69
2023-05-11T08:19:59.515Z,36.10
2023-05-11T08:22:26.449Z,36.64
2023-05-11T08:24:53.496Z,37.03
2023-05-11T08:27:20.778Z,37.37
2023-05-11T08:29:47.867Z,37.93
2023-05-11T08:32:14.889Z,38.31
2023-05-11T08:34:42.348Z,38.32
2023-05-11T08:37:09.757Z,38.48
2023-05-11T08:39:46.534Z,39.17
2023-05-11T08:42:18.084Z,39.47
2023-05-11T08:44:45.548Z,39.64
2023-05-11T08:49:42.704Z,40.11
2023-05-11T08:52:09.749Z,39.91
2023-05-11T08:54:36.806Z,40.30
2023-05-11T08:57:04.050Z,40.32
2023-05-11T08:59:33.551Z,40.32
2023-05-11T09:02:00.698Z,40.15
2023-05-11T09:04:27.644Z,40.36
2023-05-11T09:06:55.606Z,39.68
2023-05-11T09:09:22.686Z,39.79
2023-05-11T09:11:50.120Z,39.76
2023-05-11T09:14:17.481Z,39.27
2023-05-11T09:16:45.037Z,39.18
2023-05-11T09:19:14.533Z,39.78
2023-05-11T09:21:41.500Z,39.47
2023-05-11T09:24:11.294Z,38.94
2023-05-11T09:26:38.450Z,38.71
2023-05-11T09:29:05.516Z,39.56
2023-05-11T09:31:42.314Z,39.60
2023-05-11T09:34:12.496Z,38.94
2023-05-11T09:36:43.735Z,39.34
2023-05-11T09:39:15.493Z,39.81
2023-05-11T09:41:42.857Z,40.40
2023-05-11T09:44:11.633Z,39.54
2023-05-11T09:46:43.453Z,40.01
2023-05-11T09:49:11.360Z,40.13
2023-05-11T09:51:40.249Z,39.95
2023-05-11T09:54:18.533Z,40.08
2023-05-11T09:56:57.949Z,38.61
2023-05-11T09:59:51.462Z,38.14
2023-05-11T10:02:19.051Z,38.70
2023-05-11T10:04:47.298Z,38.30
2023-05-11T10:07:30.557Z,37.72
2023-05-11T10:10:07.828Z,37.47
2023-05-11T10:12:37.754Z,37.49
2023-05-11T10:15:09.087Z,37.73
2023-05-11T10:17:36.444Z,37.20
2023-05-11T10:20:04.749Z,37.23
2023-05-11T10:22:32.415Z,37.56
2023-05-11T10:24:59.624Z,37.99
2023-05-11T10:27:27.503Z,38.53
2023-05-11T10:29:54.530Z,38.35
2023-05-11T10:32:22.264Z,37.67
2023-05-11T10:34:52.309Z,37.44
2023-05-11T10:37:20.685Z,37.11
2023-05-11T10:39:50.298Z,37.16
2023-05-11T10:42:30.441Z,37.62
2023-05-11T10:45:12.853Z,37.90
2023-05-11T10:48:12.272Z,37.95
2023-05-11T10:50:59.171Z,37.67
2023-05-11T10:53:45.158Z,37.78
2023-05-11T10:56:26.139Z,38.03
2023-05-11T10:59:11.720Z,37.90
2023-05-11T11:01:40.024Z,37.70
2023-05-11T11:04:08.467Z,37.97
2023-05-11T11:06:40.550Z,37.51
2023-05-11T11:09:10.860Z,37.08
2023-05-11T11:11:39.447Z,37.16
2023-05-11T11:14:08.892Z,37.29
2023-05-11T11:16:36.851Z,36.98
2023-05-11T11:19:30.283Z,37.15
2023-05-11T11:21:59.453Z,36.90
2023-05-11T11:24:38.542Z,36.72
2023-05-11T11:27:06.206Z,36.68
2023-05-11T11:29:37.149Z,36.92
2023-05-11T11:32:21.294Z,37.11
2023-05-11T11:34:48.813Z,37.25
2023-05-11T11:37:16.898Z,36.48
2023-05-11T11:39:44.446Z,36.21
2023-05-11T11:42:12.826Z,37.04
2023-05-11T11:44:40.379Z,37.71
2023-05-11T11:47:23.108Z,37.56
2023-05-11T11:49:53.834Z,37.37
2023-05-11T11:52:26.712Z,37.19
2023-05-11T11:54:56.216Z,36.74
2023-05-11T11:57:29.819Z,36.55
2023-05-11T11:59:57.008Z,36.15
2023-05-11T12:02:23.990Z,35.79
2023-05-11T12:05:01.770Z,36.02
2023-05-11T12:07:32.675Z,35.27
2023-05-11T12:10:03.605Z,35.27
2023-05-11T12:12:31.550Z,35.27
2023-05-11T12:14:59.521Z,35.20
2023-05-11T12:17:28.944Z,35.58
2023-05-11T12:20:11.552Z,35.28
2023-05-11T12:22:38.887Z,35.02
2023-05-11T12:25:06.764Z,35.43
2023-05-11T12:27:34.518Z,35.47
2023-05-11T12:30:01.777Z,35.50
2023-05-11T12:32:30.523Z,35.91
2023-05-11T12:35:01.784Z,36.11
2023-05-11T12:37:31.943Z,36.57
2023-05-11T12:39:59.071Z,36.94
2023-05-11T12:42:26.221Z,36.91
2023-05-11T12:44:54.093Z,36.57
2023-05-11T12:47:21.349Z,36.74
2023-05-11T12:49:48.382Z,36.91
2023-05-11T12:52:15.434Z,37.53
2023-05-11T12:54:51.088Z,37.90
2023-05-11T12:57:29.091Z,38.21
2023-05-11T13:00:12.584Z,38.42
2023-05-11T13:02:55.824Z,38.51
2023-05-11T13:05:24.221Z,38.62
2023-05-11T13:08:02.512Z,38.66
2023-05-11T13:10:30.093Z,38.27
2023-05-11T13:12:57.157Z,38.19
2023-05-11T13:15:24.609Z,38.47
2023-05-11T13:17:58.614Z,37.89
2023-05-11T13:20:30.676Z,38.09
2023-05-11T13:23:07.693Z,38.41
2023-05-11T13:25:54.947Z,38.17
2023-05-11T13:28:23.864Z,38.05
2023-05-11T13:30:51.746Z,38.04
2023-05-11T13:33:19.201Z,37.47
2023-05-11T13:35:46.243Z,38.03
2023-05-11T13:38:14.108Z,38.57
2023-05-11T13:40:41.044Z,38.85
2023-05-11T13:43:08.265Z,38.72
2023-05-11T13:45:36.163Z,38.84
2023-05-11T13:48:03.844Z,39.02
2023-05-11T13:50:31.984Z,38.44
2023-05-11T13:52:58.841Z,37.56
2023-05-11T13:55:26.280Z,38.02
2023-05-11T13:57:53.095Z,38.83
2023-05-11T14:00:20.407Z,38.66
2023-05-11T14:02:49.996Z,39.10
2023-05-11T14:05:17.157Z,39.22
2023-05-11T14:07:48.394Z,38.94
2023-05-11T14:10:16.703Z,39.53
2023-05-11T14:12:43.839Z,39.80
2023-05-11T14:15:11.044Z,39.56
2023-05-11T14:17:38.379Z,39.22
2023-05-11T14:20:06.148Z,39.89
2023-05-11T14:22:33.346Z,40.23
2023-05-11T14:25:01.453Z,39.68
2023-05-11T14:27:28.463Z,39.76
2023-05-11T14:29:55.352Z,39.96
2023-05-11T14:32:22.453Z,40.04
2023-05-11T14:34:49.419Z,40.19
2023-05-11T14:37:16.661Z,40.42
2023-05-11T14:39:44.516Z,40.24
2023-05-11T14:42:11.562Z,40.15
2023-05-11T14:44:38.655Z,40.50
2023-05-11T14:47:05.975Z,40.67
2023-05-11T14:49:34.234Z,40.87
2023-05-11T14:52:01.537Z,40.17
2023-05-11T14:54:29.352Z,39.88
2023-05-11T14:56:58.221Z,39.68
2023-05-11T14:59:26.635Z,39.38
2023-05-11T15:01:53.831Z,39.12
2023-05-11T15:04:21.657Z,39.06
2023-05-11T15:06:49.400Z,39.25
2023-05-11T15:09:16.282Z,39.20
2023-05-11T15:11:43.299Z,39.17
2023-05-11T15:14:10.444Z,39.05
2023-05-11T15:16:37.569Z,39.03
2023-05-11T15:19:05.521Z,38.97
2023-05-11T15:21:32.474Z,39.17
2023-05-11T15:23:59.443Z,39.57
2023-05-11T15:26:26.491Z,39.76
2023-05-11T15:28:53.950Z,39.62
2023-05-11T15:31:22.153Z,39.23
2023-05-11T15:33:49.216Z,39.45
2023-05-11T15:36:16.421Z,39.62
2023-05-11T15:38:43.606Z,39.91
2023-05-11T15:41:10.567Z,39.88
2023-05-11T15:43:37.788Z,39.61
2023-05-11T15:46:05.254Z,39.45
2023-05-11T15:48:33.365Z,39.90
2023-05-11T15:51:00.998Z,40.35
2023-05-11T15:53:28.539Z,40.23
2023-05-11T15:55:56.480Z,40.26
2023-05-11T15:58:23.541Z,40.06
2023-05-11T16:00:50.751Z,39.60
2023-05-11T16:03:19.092Z,39.75
2023-05-11T16:05:46.153Z,39.71
2023-05-11T16:08:13.487Z,40.00
2023-05-11T16:10:40.608Z,40.39
2023-05-11T16:13:08.471Z,40.60
2023-05-11T16:15:35.820Z,40.73
2023-05-11T16:18:04.830Z,40.63
2023-05-11T16:20:32.579Z,40.49
2023-05-11T16:22:59.761Z,40.61
2023-05-11T16:25:27.085Z,40.70
2023-05-11T16:27:54.131Z,40.72
2023-05-11T16:30:25.449Z,40.70
2023-05-11T16:32:53.689Z,40.78
2023-05-11T16:35:21.225Z,40.58
2023-05-11T16:37:48.768Z,40.31
2023-05-11T16:40:20.502Z,40.36
2023-05-11T16:42:48.411Z,40.62
2023-05-11T16:45:16.057Z,40.49
2023-05-11T16:47:44.885Z,40.10
2023-05-11T16:50:15.587Z,39.80
2023-05-11T16:52:42.636Z,39.79
2023-05-11T16:55:09.989Z,39.89
2023-05-11T16:57:37.240Z,40.10
2023-05-11T17:00:06.020Z,40.47
2023-05-11T17:02:33.845Z,40.56
2023-05-11T17:05:01.138Z,40.68
2023-05-11T17:07:28.185Z,40.63
2023-05-11T17:09:56.604Z,40.73
2023-05-11T17:12:24.098Z,40.80
2023-05-11T17:14:51.269Z,40.66
2023-05-11T17:17:18.232Z,40.53
2023-05-11T17:19:45.185Z,40.56
2023-05-11T17:22:12.317Z,40.64
2023-05-11T17:24:39.279Z,40.74
2023-05-11T17:27:06.306Z,40.82
2023-05-11T17:29:34.378Z,41.13
2023-05-11T17:32:01.721Z,41.09
2023-05-11T17:34:29.627Z,41.29
2023-05-11T17:36:56.857Z,41.55
2023-05-11T17:39:23.910Z,41.77
2023-05-11T17:41:50.940Z,42.07
2023-05-11T17:44:18.122Z,42.44
2023-05-11T17:46:45.138Z,42.82
2023-05-11T17:49:12.213Z,43.20
2023-05-11T17:51:39.261Z,43.49
2023-05-11T17:54:06.482Z,43.93
2023-05-11T17:56:33.530Z,44.08
2023-05-11T17:59:00.576Z,44.22
2023-05-11T18:01:27.734Z,44.01
2023-05-11T18:03:57.022Z,43.75
2023-05-11T18:06:24.380Z,43.71
2023-05-11T18:08:52.249Z,43.75
2023-05-11T18:11:19.287Z,44.04
2023-05-11T18:13:46.852Z,44.43
2023-05-11T18:16:14.180Z,44.89
2023-05-11T18:18:42.296Z,45.26
2023-05-11T18:21:10.288Z,45.52
2023-05-11T18:23:37.506Z,45.72
2023-05-11T18:26:05.575Z,45.91
2023-05-11T18:28:32.722Z,46.17
2023-05-11T18:31:00.010Z,46.22
2023-05-11T18:33:27.442Z,46.35
2023-05-11T18:35:54.572Z,46.38
2023-05-11T18:38:21.624Z,46.46
2023-05-11T18:40:48.574Z,46.36
2023-05-11T18:43:16.549Z,46.45
2023-05-11T18:45:45.439Z,46.45
2023-05-11T18:48:12.636Z,46.66
2023-05-11T18:50:40.136Z,46.82
2023-05-11T18:53:07.895Z,46.82
2023-05-11T18:55:44.762Z,46.88
2023-05-11T18:58:20.153Z,46.98
2023-05-11T19:00:48.114Z,46.93
2023-05-11T19:03:15.709Z,46.95
2023-05-11T19:05:43.611Z,47.06
2023-05-11T19:08:10.763Z,47.10
2023-05-11T19:10:40.080Z,47.40
2023-05-11T19:13:07.522Z,47.30
2023-05-11T19:15:34.765Z,47.42
2023-05-11T19:18:02.416Z,47.57
2023-05-11T19:20:29.590Z,47.69
2023-05-11T19:22:56.578Z,47.57
2023-05-11T19:25:23.474Z,47.50
2023-05-11T19:27:51.739Z,47.56
2023-05-11T19:30:19.154Z,47.77
2023-05-11T19:32:48.422Z,47.75
2023-05-11T19:35:15.957Z,47.78
2023-05-11T19:37:43.102Z,48.10
2023-05-11T19:40:43.991Z,48.27
2023-05-11T19:42:58.392Z,48.34
2023-05-11T19:45:25.756Z,48.34
2023-05-11T19:47:53.055Z,48.46
2023-05-11T19:50:23.549Z,48.58
2023-05-11T19:52:52.109Z,48.61
2023-05-11T19:55:19.050Z,48.65
2023-05-11T19:57:46.406Z,48.64
2023-05-11T20:00:13.662Z,48.70
2023-05-11T20:02:41.519Z,48.57
2023-05-11T20:05:09.291Z,48.56
2023-05-11T20:07:38.485Z,48.59
2023-05-11T20:10:06.557Z,48.70
2023-05-11T20:12:33.706Z,48.65
2023-05-11T20:15:00.872Z,48.68
2023-05-11T20:17:28.261Z,48.79
2023-05-11T20:19:55.978Z,48.92
2023-05-11T20:22:23.022Z,49.12
2023-05-11T20:24:50.282Z,49.32
2023-05-11T20:27:17.435Z,49.46
2023-05-11T20:29:44.572Z,49.36
2023-05-11T20:32:12.134Z,49.24
2023-05-11T20:34:39.263Z,49.28
2023-05-11T20:37:07.043Z,49.19
2023-05-11T20:39:34.110Z,49.39
2023-05-11T20:42:03.695Z,49.50
2023-05-11T20:44:30.747Z,49.67
2023-05-11T20:46:57.808Z,49.82
2023-05-11T20:49:37.674Z,49.57
2023-05-11T20:52:07.142Z,49.45
2023-05-11T20:54:35.215Z,49.12
2023-05-11T20:57:03.413Z,48.79
2023-05-11T21:02:03.253Z,48.10
2023-05-11T21:04:31.095Z,47.92
2023-05-11T21:06:58.166Z,47.96
2023-05-11T21:09:25.306Z,48.02
2023-05-11T21:11:52.434Z,48.18
2023-05-11T21:14:19.785Z,48.40
2023-05-11T21:16:47.391Z,48.62
2023-05-11T21:19:18.075Z,48.70
2023-05-11T21:21:48.011Z,48.55
2023-05-11T21:24:15.856Z,48.31
2023-05-11T21:26:43.003Z,48.28
2023-05-11T21:29:12.610Z,48.40
2023-05-11T21:31:39.564Z,48.60
2023-05-11T21:34:06.502Z,48.61
2023-05-11T21:36:33.547Z,48.66
2023-05-11T21:39:00.593Z,48.64
2023-05-11T21:41:27.652Z,48.66
2023-05-11T21:43:54.589Z,48.69
2023-05-11T21:46:21.788Z,48.76
2023-05-11T21:48:48.892Z,48.74
2023-05-11T21:51:16.137Z,48.65
2023-05-11T21:53:43.288Z,48.61
2023-05-11T21:56:10.333Z,48.57
2023-05-11T21:58:37.380Z,48.67
2023-05-11T22:01:04.545Z,48.69
2023-05-11T22:03:32.133Z,48.56
2023-05-11T22:05:59.151Z,48.51
2023-05-11T22:08:26.595Z,48.49
2023-05-11T22:10:53.645Z,48.44
2023-05-11T22:13:21.202Z,48.38
2023-05-11T22:15:48.247Z,48.35
2023-05-11T22:18:15.412Z,48.49
2023-05-11T22:20:42.549Z,48.55
2023-05-11T22:23:09.613Z,48.63
2023-05-11T22:25:36.950Z,48.58
2023-05-11T22:28:04.615Z,48.59
2023-05-11T22:30:31.862Z,48.72
2023-05-11T22:32:58.974Z,48.64
2023-05-11T22:35:26.537Z,48.67
2023-05-11T22:37:53.813Z,48.56
2023-05-11T22:40:21.103Z,48.38
2023-05-11T22:42:48.321Z,48.37
2023-05-11T22:45:16.086Z,48.41
2023-05-11T22:47:43.264Z,48.47
2023-05-11T22:50:11.815Z,48.62
2023-05-11T22:52:38.970Z,48.80
2023-05-11T22:55:06.754Z,49.17
2023-05-11T22:57:33.777Z,49.55
2023-05-11T23:00:00.827Z,49.95
2023-05-11T23:02:29.503Z,50.40
2023-05-11T23:04:57.169Z,50.93
2023-05-11T23:07:24.223Z,51.25
2023-05-11T23:09:52.458Z,51.57
2023-05-11T23:12:19.639Z,51.97
2023-05-11T23:14:46.794Z,52.30
2023-05-11T23:17:13.829Z,52.59
2023-05-11T23:19:41.633Z,52.70
2023-05-11T23:22:08.652Z,53.05
2023-05-11T23:24:35.705Z,53.22
2023-05-11T23:27:03.077Z,53.34
2023-05-11T23:29:30.221Z,53.60
2023-05-11T23:31:57.468Z,54.00
2023-05-11T23:34:24.599Z,54.30
2023-05-11T23:36:51.699Z,54.47
2023-05-11T23:39:19.222Z,54.80
2023-05-11T23:41:46.056Z,54.99
2023-05-11T23:44:12.997Z,55.19
2023-05-11T23:46:40.076Z,55.34
2023-05-11T23:49:07.293Z,55.52
2023-05-11T23:51:34.448Z,55.67
2023-05-11T23:54:01.705Z,55.97
2023-05-11T23:56:28.945Z,56.24
2023-05-11T23:58:55.987Z,56.64
